AR60 weather

NEA Baptist Hospital Heliport
Jonesboro, Arkansas, United States

Public forecast

Using degrees Fahrenheit for public forecast. Weather courtesy of forecast.io.

METAR (pilot weather report)

Closest report is Jonesboro Municipal Airport, 1.7 nm (3.2 km) NE. Retrieved 2019/05/23 10:53 UTC (23 minutes ago):

KJBR 231053Z AUTO 18007KT 10SM CLR 23/21 A3008 RMK AO2 SLP182 T02330211

TAF (pilot weather forecast)

Closest forecast is Jonesboro Municipal Airport, 1.7 nm (3.2 km) NE. Retrieved 2019/05/23 06:30 UTC (5 hours ago):

TAF KJBR 230526Z 2306/2406 19007KT P6SM SCT250 FM231500 21012G18KT P6SM SCT040 SCT250 FM240200 19004KT P6SM SKC